sensor_id;sensor_type;location;lat;lon;timestamp;P1;durP1;ratioP1;P2;durP2;ratioP2
78891;SDS011;68368;51.728;5.248;2023-05-29T00:01:14;11.50;;;3.10;;
78891;SDS011;68368;51.728;5.248;2023-05-29T00:03:19;8.50;;;2.80;;
78891;SDS011;68368;51.728;5.248;2023-05-29T00:05:22;10.10;;;2.80;;
78891;SDS011;68368;51.728;5.248;2023-05-29T00:07:26;12.10;;;3.10;;
78891;SDS011;68368;51.728;5.248;2023-05-29T00:09:29;10.00;;;2.80;;
78891;SDS011;68368;51.728;5.248;2023-05-29T00:11:32;7.20;;;2.10;;
78891;SDS011;68368;51.728;5.248;2023-05-29T00:13:36;14.40;;;2.90;;
78891;SDS011;68368;51.728;5.248;2023-05-29T00:15:39;11.60;;;3.20;;
78891;SDS011;68368;51.728;5.248;2023-05-29T00:17:42;9.70;;;2.50;;
78891;SDS011;68368;51.728;5.248;2023-05-29T00:19:45;14.00;;;2.60;;
78891;SDS011;68368;51.728;5.248;2023-05-29T00:21:49;9.70;;;2.60;;
78891;SDS011;68368;51.728;5.248;2023-05-29T00:23:52;15.30;;;3.10;;
78891;SDS011;68368;51.728;5.248;2023-05-29T00:25:57;9.80;;;2.50;;
78891;SDS011;68368;51.728;5.248;2023-05-29T00:28:00;12.10;;;2.50;;
78891;SDS011;68368;51.728;5.248;2023-05-29T00:30:05;10.50;;;2.90;;
78891;SDS011;68368;51.728;5.248;2023-05-29T00:32:09;14.30;;;2.00;;
78891;SDS011;68368;51.728;5.248;2023-05-29T00:34:12;7.10;;;1.90;;
78891;SDS011;68368;51.728;5.248;2023-05-29T00:36:15;14.50;;;3.10;;
78891;SDS011;68368;51.728;5.248;2023-05-29T00:38:19;14.80;;;3.60;;
78891;SDS011;68368;51.728;5.248;2023-05-29T00:40:22;10.80;;;3.20;;
78891;SDS011;68368;51.728;5.248;2023-05-29T00:42:26;10.80;;;2.60;;
78891;SDS011;68368;51.728;5.248;2023-05-29T00:44:29;14.30;;;3.50;;
78891;SDS011;68368;51.728;5.248;2023-05-29T00:46:34;14.90;;;3.30;;
78891;SDS011;68368;51.728;5.248;2023-05-29T00:48:38;12.60;;;2.50;;
78891;SDS011;68368;51.728;5.248;2023-05-29T00:50:41;14.90;;;3.00;;
78891;SDS011;68368;51.728;5.248;2023-05-29T00:52:45;16.40;;;2.70;;
78891;SDS011;68368;51.728;5.248;2023-05-29T00:54:49;15.90;;;3.50;;
78891;SDS011;68368;51.728;5.248;2023-05-29T00:56:52;14.40;;;2.80;;
78891;SDS011;68368;51.728;5.248;2023-05-29T00:58:58;13.70;;;3.00;;
78891;SDS011;68368;51.728;5.248;2023-05-29T01:01:01;14.00;;;2.80;;
78891;SDS011;68368;51.728;5.248;2023-05-29T01:03:05;10.80;;;2.50;;
78891;SDS011;68368;51.728;5.248;2023-05-29T01:05:09;8.90;;;2.10;;
78891;SDS011;68368;51.728;5.248;2023-05-29T01:07:12;16.10;;;2.80;;
78891;SDS011;68368;51.728;5.248;2023-05-29T01:09:17;13.60;;;3.10;;
78891;SDS011;68368;51.728;5.248;2023-05-29T01:11:21;14.50;;;2.60;;
78891;SDS011;68368;51.728;5.248;2023-05-29T01:13:35;15.30;;;3.70;;
78891;SDS011;68368;51.728;5.248;2023-05-29T01:15:44;13.40;;;3.10;;
78891;SDS011;68368;51.728;5.248;2023-05-29T01:18:01;13.20;;;3.00;;
78891;SDS011;68368;51.728;5.248;2023-05-29T01:20:18;13.50;;;2.70;;
78891;SDS011;68368;51.728;5.248;2023-05-29T01:22:34;12.10;;;3.10;;
78891;SDS011;68368;51.728;5.248;2023-05-29T01:24:51;13.10;;;2.70;;
78891;SDS011;68368;51.728;5.248;2023-05-29T01:27:06;14.30;;;3.20;;
78891;SDS011;68368;51.728;5.248;2023-05-29T01:29:12;14.40;;;3.00;;
78891;SDS011;68368;51.728;5.248;2023-05-29T01:31:20;15.40;;;3.30;;
78891;SDS011;68368;51.728;5.248;2023-05-29T01:33:24;13.80;;;3.00;;
78891;SDS011;68368;51.728;5.248;2023-05-29T01:35:32;14.30;;;3.80;;
78891;SDS011;68368;51.728;5.248;2023-05-29T01:37:35;16.70;;;3.50;;
78891;SDS011;68368;51.728;5.248;2023-05-29T01:39:39;10.60;;;2.20;;
78891;SDS011;68368;51.728;5.248;2023-05-29T01:41:44;13.60;;;2.60;;
78891;SDS011;68368;51.728;5.248;2023-05-29T01:43:49;12.90;;;2.60;;
78891;SDS011;68368;51.728;5.248;2023-05-29T01:45:54;10.50;;;3.30;;
78891;SDS011;68368;51.728;5.248;2023-05-29T01:47:58;13.90;;;2.90;;
78891;SDS011;68368;51.728;5.248;2023-05-29T01:50:01;8.20;;;2.00;;
78891;SDS011;68368;51.728;5.248;2023-05-29T01:52:08;16.90;;;2.70;;
78891;SDS011;68368;51.728;5.248;2023-05-29T01:54:12;9.80;;;2.30;;
78891;SDS011;68368;51.728;5.248;2023-05-29T01:56:16;12.10;;;2.60;;
78891;SDS011;68368;51.728;5.248;2023-05-29T01:58:22;13.50;;;3.50;;
78891;SDS011;68368;51.728;5.248;2023-05-29T02:00:27;15.60;;;2.50;;
78891;SDS011;68368;51.728;5.248;2023-05-29T02:02:31;15.40;;;3.40;;
78891;SDS011;68368;51.728;5.248;2023-05-29T02:04:37;10.00;;;2.30;;
78891;SDS011;68368;51.728;5.248;2023-05-29T02:06:43;11.80;;;3.00;;
78891;SDS011;68368;51.728;5.248;2023-05-29T02:08:47;14.20;;;2.90;;
78891;SDS011;68368;51.728;5.248;2023-05-29T02:10:51;15.30;;;2.70;;
78891;SDS011;68368;51.728;5.248;2023-05-29T02:12:54;12.40;;;3.00;;
78891;SDS011;68368;51.728;5.248;2023-05-29T02:14:59;16.80;;;3.40;;
78891;SDS011;68368;51.728;5.248;2023-05-29T02:17:03;11.30;;;2.80;;
78891;SDS011;68368;51.728;5.248;2023-05-29T02:19:09;11.30;;;2.30;;
78891;SDS011;68368;51.728;5.248;2023-05-29T02:21:13;11.80;;;2.60;;
78891;SDS011;68368;51.728;5.248;2023-05-29T02:23:16;14.40;;;2.90;;
78891;SDS011;68368;51.728;5.248;2023-05-29T02:25:22;11.30;;;3.40;;
78891;SDS011;68368;51.728;5.248;2023-05-29T02:27:25;14.20;;;3.40;;
78891;SDS011;68368;51.728;5.248;2023-05-29T02:29:30;11.20;;;2.60;;
78891;SDS011;68368;51.728;5.248;2023-05-29T02:31:33;12.30;;;2.70;;
78891;SDS011;68368;51.728;5.248;2023-05-29T02:33:36;11.30;;;3.00;;
78891;SDS011;68368;51.728;5.248;2023-05-29T02:35:42;12.90;;;2.80;;
78891;SDS011;68368;51.728;5.248;2023-05-29T02:37:46;14.40;;;2.40;;
78891;SDS011;68368;51.728;5.248;2023-05-29T02:39:50;16.40;;;2.90;;
78891;SDS011;68368;51.728;5.248;2023-05-29T02:41:53;14.30;;;3.00;;
78891;SDS011;68368;51.728;5.248;2023-05-29T02:43:57;10.00;;;2.70;;
78891;SDS011;68368;51.728;5.248;2023-05-29T02:46:00;15.90;;;3.40;;
78891;SDS011;68368;51.728;5.248;2023-05-29T02:48:03;14.60;;;3.00;;
78891;SDS011;68368;51.728;5.248;2023-05-29T02:50:07;11.10;;;2.50;;
78891;SDS011;68368;51.728;5.248;2023-05-29T02:52:14;11.30;;;2.00;;
78891;SDS011;68368;51.728;5.248;2023-05-29T02:54:17;16.20;;;3.50;;
78891;SDS011;68368;51.728;5.248;2023-05-29T02:56:20;11.30;;;3.00;;
78891;SDS011;68368;51.728;5.248;2023-05-29T02:58:24;11.50;;;2.50;;
78891;SDS011;68368;51.728;5.248;2023-05-29T03:00:27;16.00;;;2.90;;
78891;SDS011;68368;51.728;5.248;2023-05-29T03:02:31;12.80;;;2.30;;
78891;SDS011;68368;51.728;5.248;2023-05-29T03:04:35;14.20;;;2.60;;
78891;SDS011;68368;51.728;5.248;2023-05-29T03:06:38;16.70;;;2.70;;
78891;SDS011;68368;51.728;5.248;2023-05-29T03:08:41;12.30;;;2.90;;
78891;SDS011;68368;51.728;5.248;2023-05-29T03:10:44;15.60;;;3.40;;
78891;SDS011;68368;51.728;5.248;2023-05-29T03:12:48;11.10;;;2.50;;
78891;SDS011;68368;51.728;5.248;2023-05-29T03:14:51;15.70;;;2.70;;
78891;SDS011;68368;51.728;5.248;2023-05-29T03:16:54;19.30;;;3.40;;
78891;SDS011;68368;51.728;5.248;2023-05-29T03:19:00;15.20;;;2.90;;
78891;SDS011;68368;51.728;5.248;2023-05-29T03:21:04;16.60;;;3.30;;
78891;SDS011;68368;51.728;5.248;2023-05-29T03:23:07;15.50;;;2.40;;
78891;SDS011;68368;51.728;5.248;2023-05-29T03:25:12;13.60;;;2.90;;
78891;SDS011;68368;51.728;5.248;2023-05-29T03:27:17;11.80;;;2.50;;
78891;SDS011;68368;51.728;5.248;2023-05-29T03:29:20;17.00;;;2.70;;
78891;SDS011;68368;51.728;5.248;2023-05-29T03:31:23;11.90;;;2.30;;
78891;SDS011;68368;51.728;5.248;2023-05-29T03:33:27;13.70;;;2.50;;
78891;SDS011;68368;51.728;5.248;2023-05-29T03:35:30;12.40;;;2.10;;
78891;SDS011;68368;51.728;5.248;2023-05-29T03:37:33;15.30;;;3.40;;
78891;SDS011;68368;51.728;5.248;2023-05-29T03:39:37;8.90;;;2.30;;
78891;SDS011;68368;51.728;5.248;2023-05-29T03:41:40;11.10;;;3.00;;
78891;SDS011;68368;51.728;5.248;2023-05-29T03:43:44;10.60;;;2.40;;
78891;SDS011;68368;51.728;5.248;2023-05-29T03:45:47;13.60;;;3.10;;
78891;SDS011;68368;51.728;5.248;2023-05-29T03:47:51;14.80;;;2.90;;
78891;SDS011;68368;51.728;5.248;2023-05-29T03:49:54;14.40;;;3.10;;
78891;SDS011;68368;51.728;5.248;2023-05-29T03:51:57;11.70;;;2.80;;
78891;SDS011;68368;51.728;5.248;2023-05-29T03:54:00;13.10;;;2.30;;
78891;SDS011;68368;51.728;5.248;2023-05-29T03:56:04;12.00;;;2.40;;
78891;SDS011;68368;51.728;5.248;2023-05-29T03:58:08;8.00;;;1.90;;
78891;SDS011;68368;51.728;5.248;2023-05-29T04:00:12;13.20;;;2.60;;
78891;SDS011;68368;51.728;5.248;2023-05-29T04:02:15;13.40;;;2.60;;
78891;SDS011;68368;51.728;5.248;2023-05-29T04:04:19;12.60;;;2.00;;
78891;SDS011;68368;51.728;5.248;2023-05-29T04:06:22;11.60;;;2.10;;
78891;SDS011;68368;51.728;5.248;2023-05-29T04:08:26;14.60;;;2.50;;
78891;SDS011;68368;51.728;5.248;2023-05-29T04:10:29;12.40;;;2.20;;
78891;SDS011;68368;51.728;5.248;2023-05-29T04:12:32;18.40;;;2.40;;
78891;SDS011;68368;51.728;5.248;2023-05-29T04:14:36;10.30;;;2.20;;
78891;SDS011;68368;51.728;5.248;2023-05-29T04:16:40;14.80;;;3.10;;
78891;SDS011;68368;51.728;5.248;2023-05-29T04:18:43;13.70;;;2.50;;
78891;SDS011;68368;51.728;5.248;2023-05-29T04:20:46;10.00;;;2.60;;
78891;SDS011;68368;51.728;5.248;2023-05-29T04:22:50;8.20;;;2.00;;
78891;SDS011;68368;51.728;5.248;2023-05-29T04:24:54;8.80;;;1.40;;
78891;SDS011;68368;51.728;5.248;2023-05-29T04:26:57;9.60;;;2.00;;
78891;SDS011;68368;51.728;5.248;2023-05-29T04:29:00;13.70;;;2.80;;
78891;SDS011;68368;51.728;5.248;2023-05-29T04:31:04;15.80;;;2.40;;
78891;SDS011;68368;51.728;5.248;2023-05-29T04:33:07;14.00;;;2.60;;
78891;SDS011;68368;51.728;5.248;2023-05-29T04:35:10;15.60;;;3.10;;
78891;SDS011;68368;51.728;5.248;2023-05-29T04:37:14;13.80;;;3.50;;
78891;SDS011;68368;51.728;5.248;2023-05-29T04:39:17;5.30;;;1.30;;
78891;SDS011;68368;51.728;5.248;2023-05-29T04:41:20;12.20;;;2.60;;
78891;SDS011;68368;51.728;5.248;2023-05-29T04:43:24;12.50;;;2.40;;
78891;SDS011;68368;51.728;5.248;2023-05-29T04:45:28;12.40;;;2.70;;
78891;SDS011;68368;51.728;5.248;2023-05-29T04:47:31;14.90;;;2.70;;
78891;SDS011;68368;51.728;5.248;2023-05-29T04:49:34;11.50;;;2.50;;
78891;SDS011;68368;51.728;5.248;2023-05-29T04:51:37;11.10;;;2.40;;
78891;SDS011;68368;51.728;5.248;2023-05-29T04:53:41;13.10;;;2.60;;
78891;SDS011;68368;51.728;5.248;2023-05-29T04:55:44;8.70;;;2.30;;
78891;SDS011;68368;51.728;5.248;2023-05-29T04:57:47;13.80;;;3.10;;
78891;SDS011;68368;51.728;5.248;2023-05-29T04:59:53;15.00;;;2.60;;
78891;SDS011;68368;51.728;5.248;2023-05-29T05:01:56;11.90;;;2.20;;
78891;SDS011;68368;51.728;5.248;2023-05-29T05:03:59;10.30;;;2.50;;
78891;SDS011;68368;51.728;5.248;2023-05-29T05:06:03;9.80;;;2.50;;
78891;SDS011;68368;51.728;5.248;2023-05-29T05:08:06;9.00;;;2.50;;
78891;SDS011;68368;51.728;5.248;2023-05-29T05:10:12;9.00;;;1.90;;
78891;SDS011;68368;51.728;5.248;2023-05-29T05:12:16;10.50;;;2.00;;
78891;SDS011;68368;51.728;5.248;2023-05-29T05:14:19;10.50;;;2.30;;
78891;SDS011;68368;51.728;5.248;2023-05-29T05:16:23;9.90;;;2.20;;
78891;SDS011;68368;51.728;5.248;2023-05-29T05:18:26;9.90;;;2.50;;
78891;SDS011;68368;51.728;5.248;2023-05-29T05:20:30;10.70;;;2.20;;
78891;SDS011;68368;51.728;5.248;2023-05-29T05:22:33;10.40;;;2.40;;
78891;SDS011;68368;51.728;5.248;2023-05-29T05:24:36;12.80;;;2.70;;
78891;SDS011;68368;51.728;5.248;2023-05-29T05:26:42;8.20;;;2.30;;
78891;SDS011;68368;51.728;5.248;2023-05-29T05:28:45;11.20;;;2.30;;
78891;SDS011;68368;51.728;5.248;2023-05-29T05:30:48;9.90;;;2.60;;
78891;SDS011;68368;51.728;5.248;2023-05-29T05:32:53;11.40;;;2.40;;
78891;SDS011;68368;51.728;5.248;2023-05-29T05:34:56;9.00;;;2.40;;
78891;SDS011;68368;51.728;5.248;2023-05-29T05:37:00;11.80;;;2.80;;
78891;SDS011;68368;51.728;5.248;2023-05-29T05:39:03;13.10;;;2.50;;
78891;SDS011;68368;51.728;5.248;2023-05-29T05:41:09;10.30;;;2.50;;
78891;SDS011;68368;51.728;5.248;2023-05-29T05:43:12;12.80;;;2.30;;
78891;SDS011;68368;51.728;5.248;2023-05-29T05:45:15;8.90;;;2.50;;
78891;SDS011;68368;51.728;5.248;2023-05-29T05:47:18;11.00;;;3.20;;
78891;SDS011;68368;51.728;5.248;2023-05-29T05:51:28;10.50;;;2.80;;
78891;SDS011;68368;51.728;5.248;2023-05-29T05:53:31;11.40;;;2.80;;
78891;SDS011;68368;51.728;5.248;2023-05-29T05:55:35;10.40;;;2.90;;
78891;SDS011;68368;51.728;5.248;2023-05-29T05:57:38;9.90;;;2.50;;
78891;SDS011;68368;51.728;5.248;2023-05-29T05:59:45;9.70;;;2.40;;
78891;SDS011;68368;51.728;5.248;2023-05-29T06:01:48;8.30;;;2.60;;
78891;SDS011;68368;51.728;5.248;2023-05-29T06:03:53;12.90;;;2.50;;
78891;SDS011;68368;51.728;5.248;2023-05-29T06:05:56;6.00;;;1.90;;
78891;SDS011;68368;51.728;5.248;2023-05-29T06:07:59;13.50;;;2.50;;
78891;SDS011;68368;51.728;5.248;2023-05-29T06:10:03;9.20;;;2.20;;
78891;SDS011;68368;51.728;5.248;2023-05-29T06:12:08;9.20;;;2.70;;
78891;SDS011;68368;51.728;5.248;2023-05-29T06:14:12;10.90;;;2.90;;
78891;SDS011;68368;51.728;5.248;2023-05-29T06:16:17;9.70;;;2.30;;
78891;SDS011;68368;51.728;5.248;2023-05-29T06:18:20;9.80;;;2.10;;
78891;SDS011;68368;51.728;5.248;2023-05-29T06:20:26;8.20;;;2.00;;
78891;SDS011;68368;51.728;5.248;2023-05-29T06:22:32;12.30;;;2.40;;
78891;SDS011;68368;51.728;5.248;2023-05-29T06:26:37;8.80;;;2.40;;
78891;SDS011;68368;51.728;5.248;2023-05-29T06:28:41;8.90;;;2.40;;
78891;SDS011;68368;51.728;5.248;2023-05-29T06:30:44;11.00;;;2.60;;
78891;SDS011;68368;51.728;5.248;2023-05-29T06:32:49;9.80;;;2.50;;
78891;SDS011;68368;51.728;5.248;2023-05-29T06:34:53;9.50;;;2.10;;
78891;SDS011;68368;51.728;5.248;2023-05-29T06:36:57;8.70;;;2.20;;
78891;SDS011;68368;51.728;5.248;2023-05-29T06:39:00;7.50;;;2.00;;
78891;SDS011;68368;51.728;5.248;2023-05-29T06:41:03;11.10;;;2.60;;
78891;SDS011;68368;51.728;5.248;2023-05-29T06:43:07;10.40;;;2.30;;
78891;SDS011;68368;51.728;5.248;2023-05-29T06:45:15;9.70;;;2.60;;
78891;SDS011;68368;51.728;5.248;2023-05-29T06:47:20;10.20;;;2.00;;
78891;SDS011;68368;51.728;5.248;2023-05-29T06:49:23;7.80;;;2.10;;
78891;SDS011;68368;51.728;5.248;2023-05-29T06:51:26;9.30;;;2.40;;
78891;SDS011;68368;51.728;5.248;2023-05-29T06:53:32;9.10;;;2.30;;
78891;SDS011;68368;51.728;5.248;2023-05-29T06:55:38;9.80;;;2.40;;
78891;SDS011;68368;51.728;5.248;2023-05-29T06:57:41;8.10;;;2.60;;
78891;SDS011;68368;51.728;5.248;2023-05-29T06:59:49;9.80;;;2.30;;
78891;SDS011;68368;51.728;5.248;2023-05-29T07:01:52;9.20;;;2.60;;
78891;SDS011;68368;51.728;5.248;2023-05-29T07:03:56;5.80;;;2.30;;
78891;SDS011;68368;51.728;5.248;2023-05-29T07:05:59;8.40;;;2.40;;
78891;SDS011;68368;51.728;5.248;2023-05-29T07:08:03;10.80;;;2.70;;
78891;SDS011;68368;51.728;5.248;2023-05-29T07:10:07;8.70;;;2.40;;
78891;SDS011;68368;51.728;5.248;2023-05-29T07:12:11;9.20;;;2.80;;
78891;SDS011;68368;51.728;5.248;2023-05-29T07:14:14;7.90;;;2.20;;
78891;SDS011;68368;51.728;5.248;2023-05-29T07:16:18;11.20;;;2.40;;
78891;SDS011;68368;51.728;5.248;2023-05-29T07:18:21;9.30;;;2.30;;
78891;SDS011;68368;51.728;5.248;2023-05-29T07:20:28;7.20;;;2.10;;
78891;SDS011;68368;51.728;5.248;2023-05-29T07:22:31;10.90;;;2.70;;
78891;SDS011;68368;51.728;5.248;2023-05-29T07:24:34;7.60;;;2.10;;
78891;SDS011;68368;51.728;5.248;2023-05-29T07:26:38;8.80;;;2.50;;
78891;SDS011;68368;51.728;5.248;2023-05-29T07:28:43;5.50;;;1.70;;
78891;SDS011;68368;51.728;5.248;2023-05-29T07:30:52;9.60;;;1.80;;
78891;SDS011;68368;51.728;5.248;2023-05-29T07:32:57;9.90;;;2.10;;
78891;SDS011;68368;51.728;5.248;2023-05-29T07:35:04;6.20;;;2.20;;
78891;SDS011;68368;51.728;5.248;2023-05-29T07:37:08;8.60;;;2.20;;
78891;SDS011;68368;51.728;5.248;2023-05-29T07:39:12;8.50;;;2.30;;
78891;SDS011;68368;51.728;5.248;2023-05-29T07:41:16;8.20;;;2.40;;
78891;SDS011;68368;51.728;5.248;2023-05-29T07:43:22;7.50;;;2.20;;
78891;SDS011;68368;51.728;5.248;2023-05-29T07:45:26;8.20;;;2.40;;
78891;SDS011;68368;51.728;5.248;2023-05-29T07:47:29;7.10;;;2.10;;
78891;SDS011;68368;51.728;5.248;2023-05-29T07:49:32;8.10;;;1.90;;
78891;SDS011;68368;51.728;5.248;2023-05-29T07:51:36;8.40;;;1.90;;
78891;SDS011;68368;51.728;5.248;2023-05-29T07:53:39;6.90;;;2.00;;
78891;SDS011;68368;51.728;5.248;2023-05-29T07:55:45;9.40;;;2.30;;
78891;SDS011;68368;51.728;5.248;2023-05-29T07:57:48;9.10;;;2.30;;
78891;SDS011;68368;51.728;5.248;2023-05-29T07:59:51;7.00;;;2.20;;
78891;SDS011;68368;51.728;5.248;2023-05-29T08:01:54;8.70;;;2.30;;
78891;SDS011;68368;51.728;5.248;2023-05-29T08:04:01;7.30;;;1.80;;
78891;SDS011;68368;51.728;5.248;2023-05-29T08:06:05;8.10;;;1.80;;
78891;SDS011;68368;51.728;5.248;2023-05-29T08:08:08;7.80;;;1.70;;
78891;SDS011;68368;51.728;5.248;2023-05-29T08:10:11;7.10;;;1.90;;
78891;SDS011;68368;51.728;5.248;2023-05-29T08:12:15;7.40;;;1.80;;
78891;SDS011;68368;51.728;5.248;2023-05-29T08:14:19;7.90;;;1.90;;
78891;SDS011;68368;51.728;5.248;2023-05-29T08:16:22;8.70;;;2.00;;
78891;SDS011;68368;51.728;5.248;2023-05-29T08:18:26;6.80;;;1.90;;
78891;SDS011;68368;51.728;5.248;2023-05-29T08:22:33;7.60;;;2.00;;
78891;SDS011;68368;51.728;5.248;2023-05-29T08:24:36;8.00;;;2.00;;
78891;SDS011;68368;51.728;5.248;2023-05-29T08:26:40;9.60;;;2.20;;
78891;SDS011;68368;51.728;5.248;2023-05-29T08:28:43;7.80;;;1.80;;
78891;SDS011;68368;51.728;5.248;2023-05-29T08:30:46;9.80;;;1.90;;
78891;SDS011;68368;51.728;5.248;2023-05-29T08:32:49;6.50;;;1.70;;
78891;SDS011;68368;51.728;5.248;2023-05-29T08:34:53;6.00;;;1.70;;
78891;SDS011;68368;51.728;5.248;2023-05-29T08:36:56;6.10;;;1.90;;
78891;SDS011;68368;51.728;5.248;2023-05-29T08:38:59;5.90;;;1.70;;
78891;SDS011;68368;51.728;5.248;2023-05-29T08:41:02;6.80;;;2.10;;
78891;SDS011;68368;51.728;5.248;2023-05-29T08:43:10;8.90;;;2.00;;
78891;SDS011;68368;51.728;5.248;2023-05-29T08:45:16;6.80;;;2.00;;
78891;SDS011;68368;51.728;5.248;2023-05-29T08:47:23;5.80;;;1.90;;
78891;SDS011;68368;51.728;5.248;2023-05-29T08:49:34;6.20;;;1.80;;
78891;SDS011;68368;51.728;5.248;2023-05-29T08:51:42;10.00;;;1.90;;
78891;SDS011;68368;51.728;5.248;2023-05-29T08:53:48;6.40;;;2.00;;
78891;SDS011;68368;51.728;5.248;2023-05-29T08:55:52;4.40;;;1.60;;
78891;SDS011;68368;51.728;5.248;2023-05-29T08:57:57;6.20;;;1.70;;
78891;SDS011;68368;51.728;5.248;2023-05-29T09:00:01;7.00;;;1.90;;
78891;SDS011;68368;51.728;5.248;2023-05-29T09:02:05;8.30;;;2.40;;
78891;SDS011;68368;51.728;5.248;2023-05-29T09:04:08;6.50;;;2.20;;
78891;SDS011;68368;51.728;5.248;2023-05-29T09:06:13;9.40;;;2.40;;
78891;SDS011;68368;51.728;5.248;2023-05-29T09:08:16;7.80;;;2.40;;
78891;SDS011;68368;51.728;5.248;2023-05-29T09:10:20;5.50;;;1.90;;
78891;SDS011;68368;51.728;5.248;2023-05-29T09:12:24;10.40;;;2.30;;
78891;SDS011;68368;51.728;5.248;2023-05-29T09:14:35;8.50;;;1.90;;
78891;SDS011;68368;51.728;5.248;2023-05-29T09:16:42;6.70;;;1.80;;
78891;SDS011;68368;51.728;5.248;2023-05-29T09:18:46;6.60;;;1.80;;
78891;SDS011;68368;51.728;5.248;2023-05-29T09:20:49;9.50;;;2.10;;
78891;SDS011;68368;51.728;5.248;2023-05-29T09:22:55;10.30;;;2.30;;
78891;SDS011;68368;51.728;5.248;2023-05-29T09:24:59;5.90;;;2.20;;
78891;SDS011;68368;51.728;5.248;2023-05-29T09:27:04;5.80;;;1.80;;
78891;SDS011;68368;51.728;5.248;2023-05-29T09:29:07;8.10;;;2.20;;
78891;SDS011;68368;51.728;5.248;2023-05-29T09:31:15;12.60;;;2.70;;
78891;SDS011;68368;51.728;5.248;2023-05-29T09:33:18;8.10;;;2.10;;
78891;SDS011;68368;51.728;5.248;2023-05-29T09:35:21;7.00;;;2.10;;
78891;SDS011;68368;51.728;5.248;2023-05-29T09:37:24;6.60;;;1.50;;
78891;SDS011;68368;51.728;5.248;2023-05-29T09:39:27;6.70;;;1.90;;
78891;SDS011;68368;51.728;5.248;2023-05-29T09:41:31;6.40;;;2.00;;
78891;SDS011;68368;51.728;5.248;2023-05-29T09:43:34;7.20;;;2.10;;
78891;SDS011;68368;51.728;5.248;2023-05-29T09:45:40;7.10;;;2.00;;
78891;SDS011;68368;51.728;5.248;2023-05-29T09:47:45;7.40;;;1.70;;
78891;SDS011;68368;51.728;5.248;2023-05-29T09:49:48;9.00;;;2.10;;
78891;SDS011;68368;51.728;5.248;2023-05-29T09:51:54;6.50;;;2.10;;
78891;SDS011;68368;51.728;5.248;2023-05-29T09:53:57;5.50;;;2.00;;
78891;SDS011;68368;51.728;5.248;2023-05-29T09:56:13;6.70;;;1.80;;
78891;SDS011;68368;51.728;5.248;2023-05-29T09:58:18;8.90;;;1.90;;
78891;SDS011;68368;51.728;5.248;2023-05-29T10:00:22;9.20;;;2.10;;
78891;SDS011;68368;51.728;5.248;2023-05-29T10:02:26;5.50;;;1.90;;
78891;SDS011;68368;51.728;5.248;2023-05-29T10:04:30;9.00;;;2.50;;
78891;SDS011;68368;51.728;5.248;2023-05-29T10:06:34;7.10;;;1.60;;
78891;SDS011;68368;51.728;5.248;2023-05-29T10:08:45;7.40;;;1.90;;
78891;SDS011;68368;51.728;5.248;2023-05-29T10:10:52;6.30;;;2.00;;
78891;SDS011;68368;51.728;5.248;2023-05-29T10:13:00;10.10;;;2.10;;
78891;SDS011;68368;51.728;5.248;2023-05-29T10:15:07;6.80;;;2.10;;
78891;SDS011;68368;51.728;5.248;2023-05-29T10:17:14;7.80;;;2.00;;
78891;SDS011;68368;51.728;5.248;2023-05-29T10:21:26;7.70;;;2.10;;
78891;SDS011;68368;51.728;5.248;2023-05-29T10:23:30;6.30;;;1.80;;
78891;SDS011;68368;51.728;5.248;2023-05-29T10:25:34;6.20;;;1.30;;
78891;SDS011;68368;51.728;5.248;2023-05-29T10:27:39;6.00;;;2.40;;
78891;SDS011;68368;51.728;5.248;2023-05-29T10:29:45;8.30;;;2.00;;
78891;SDS011;68368;51.728;5.248;2023-05-29T10:32:03;7.40;;;2.00;;
78891;SDS011;68368;51.728;5.248;2023-05-29T10:34:25;5.00;;;1.60;;
78891;SDS011;68368;51.728;5.248;2023-05-29T10:36:42;6.40;;;1.80;;
78891;SDS011;68368;51.728;5.248;2023-05-29T10:38:51;5.90;;;1.70;;
78891;SDS011;68368;51.728;5.248;2023-05-29T10:40:55;5.50;;;2.00;;
78891;SDS011;68368;51.728;5.248;2023-05-29T10:43:33;6.30;;;2.50;;
78891;SDS011;68368;51.728;5.248;2023-05-29T10:45:49;6.40;;;2.00;;
78891;SDS011;68368;51.728;5.248;2023-05-29T10:47:53;7.90;;;2.10;;
78891;SDS011;68368;51.728;5.248;2023-05-29T10:49:59;9.70;;;2.40;;
78891;SDS011;68368;51.728;5.248;2023-05-29T10:52:04;7.00;;;2.00;;
78891;SDS011;68368;51.728;5.248;2023-05-29T10:54:08;7.10;;;1.70;;
78891;SDS011;68368;51.728;5.248;2023-05-29T10:56:16;7.00;;;1.90;;
78891;SDS011;68368;51.728;5.248;2023-05-29T10:58:25;6.80;;;1.70;;
78891;SDS011;68368;51.728;5.248;2023-05-29T11:00:29;6.90;;;2.10;;
78891;SDS011;68368;51.728;5.248;2023-05-29T11:02:34;6.90;;;2.00;;
78891;SDS011;68368;51.728;5.248;2023-05-29T11:04:40;8.60;;;2.40;;
78891;SDS011;68368;51.728;5.248;2023-05-29T11:06:43;6.40;;;2.00;;
78891;SDS011;68368;51.728;5.248;2023-05-29T11:08:52;7.00;;;1.80;;
78891;SDS011;68368;51.728;5.248;2023-05-29T11:10:57;8.20;;;2.20;;
78891;SDS011;68368;51.728;5.248;2023-05-29T11:13:01;8.40;;;2.20;;
78891;SDS011;68368;51.728;5.248;2023-05-29T11:15:07;8.70;;;2.00;;
78891;SDS011;68368;51.728;5.248;2023-05-29T11:17:25;7.90;;;2.20;;
78891;SDS011;68368;51.728;5.248;2023-05-29T11:19:32;6.10;;;2.00;;
78891;SDS011;68368;51.728;5.248;2023-05-29T11:24:07;6.20;;;1.80;;
78891;SDS011;68368;51.728;5.248;2023-05-29T11:26:25;5.80;;;1.90;;
78891;SDS011;68368;51.728;5.248;2023-05-29T11:28:31;9.10;;;2.10;;
78891;SDS011;68368;51.728;5.248;2023-05-29T11:30:44;5.80;;;1.60;;
78891;SDS011;68368;51.728;5.248;2023-05-29T11:32:49;5.10;;;1.40;;
78891;SDS011;68368;51.728;5.248;2023-05-29T11:34:53;7.60;;;2.10;;
78891;SDS011;68368;51.728;5.248;2023-05-29T11:37:01;7.50;;;2.00;;
78891;SDS011;68368;51.728;5.248;2023-05-29T11:39:04;6.70;;;1.80;;
78891;SDS011;68368;51.728;5.248;2023-05-29T11:41:07;6.60;;;2.00;;
78891;SDS011;68368;51.728;5.248;2023-05-29T11:43:12;6.30;;;1.80;;
78891;SDS011;68368;51.728;5.248;2023-05-29T11:45:16;8.50;;;2.30;;
78891;SDS011;68368;51.728;5.248;2023-05-29T11:47:21;6.80;;;2.00;;
78891;SDS011;68368;51.728;5.248;2023-05-29T11:49:28;6.90;;;2.30;;
78891;SDS011;68368;51.728;5.248;2023-05-29T11:51:32;6.90;;;1.80;;
78891;SDS011;68368;51.728;5.248;2023-05-29T11:53:35;5.30;;;1.60;;
78891;SDS011;68368;51.728;5.248;2023-05-29T11:55:41;12.10;;;2.50;;
78891;SDS011;68368;51.728;5.248;2023-05-29T11:57:44;7.20;;;2.10;;
78891;SDS011;68368;51.728;5.248;2023-05-29T11:59:48;6.70;;;2.10;;
78891;SDS011;68368;51.728;5.248;2023-05-29T12:01:52;7.60;;;2.20;;
78891;SDS011;68368;51.728;5.248;2023-05-29T12:03:55;5.30;;;1.70;;
78891;SDS011;68368;51.728;5.248;2023-05-29T12:05:58;8.60;;;2.20;;
78891;SDS011;68368;51.728;5.248;2023-05-29T12:08:01;8.30;;;2.20;;
78891;SDS011;68368;51.728;5.248;2023-05-29T12:10:11;5.80;;;1.80;;
78891;SDS011;68368;51.728;5.248;2023-05-29T12:12:16;5.40;;;1.80;;
78891;SDS011;68368;51.728;5.248;2023-05-29T12:14:21;7.10;;;2.30;;
78891;SDS011;68368;51.728;5.248;2023-05-29T12:16:24;6.90;;;2.20;;
78891;SDS011;68368;51.728;5.248;2023-05-29T12:18:28;8.40;;;2.00;;
78891;SDS011;68368;51.728;5.248;2023-05-29T12:20:31;6.70;;;2.20;;
78891;SDS011;68368;51.728;5.248;2023-05-29T12:22:35;9.50;;;2.50;;
78891;SDS011;68368;51.728;5.248;2023-05-29T12:24:39;10.50;;;2.20;;
78891;SDS011;68368;51.728;5.248;2023-05-29T12:26:43;7.20;;;1.90;;
78891;SDS011;68368;51.728;5.248;2023-05-29T12:28:46;7.90;;;2.00;;
78891;SDS011;68368;51.728;5.248;2023-05-29T12:30:57;6.90;;;2.10;;
78891;SDS011;68368;51.728;5.248;2023-05-29T12:33:01;8.60;;;2.50;;
78891;SDS011;68368;51.728;5.248;2023-05-29T12:35:12;6.90;;;2.20;;
78891;SDS011;68368;51.728;5.248;2023-05-29T12:37:20;10.30;;;2.40;;